Time;durP1;ratioP1;P1;durP2;ratioP2;P2;SDS_P1;SDS_P2;PMS_P1;PMS_P2;Temp;Humidity;BMP_temperature;BMP_pressure;BME280_temperature;BME280_humidity;BME280_pressure;Samples;Min_cycle;Max_cycle;Signal;HPM_P1;HPM_P2
2021/09/06 00:02:06;;;;;;;2.33;1.00;;;;;;;;;;5010651;28;20030;-68
2021/09/06 00:04:32;;;;;;;1.77;0.90;;;;;;;;;;5010452;28;20038;-68
2021/09/06 00:06:58;;;;;;;1.98;0.80;;;;;;;;;;4998109;28;20121;-68
2021/09/06 00:09:25;;;;;;;1.83;1.10;;;;;;;;;;4991202;28;20114;-68
2021/09/06 00:11:51;;;;;;;2.00;0.90;;;;;;;;;;4992716;28;20038;-68
2021/09/06 00:14:18;;;;;;;3.42;1.00;;;;;;;;;;5013701;28;20064;-68
2021/09/06 00:16:44;;;;;;;2.17;0.90;;;;;;;;;;5014159;28;20061;-69
2021/09/06 00:19:10;;;;;;;2.30;1.23;;;;;;;;;;5014073;28;20080;-68
2021/09/06 00:21:35;;;;;;;3.20;1.10;;;;;;;;;;5014049;28;21141;-68
2021/09/06 00:24:00;;;;;;;1.73;0.82;;;;;;;;;;5013917;28;20037;-69
2021/09/06 00:26:28;;;;;;;2.67;0.98;;;;;;;;;;5013323;28;20022;-68
2021/09/06 00:28:54;;;;;;;2.70;1.10;;;;;;;;;;5014072;28;20037;-68
2021/09/06 00:31:20;;;;;;;2.45;1.00;;;;;;;;;;5014182;28;20390;-68
2021/09/06 00:33:45;;;;;;;2.97;0.90;;;;;;;;;;5013574;28;20033;-68
2021/09/06 00:36:11;;;;;;;2.58;1.13;;;;;;;;;;5014267;28;20076;-68
2021/09/06 00:38:37;;;;;;;3.20;0.90;;;;;;;;;;5012837;28;20489;-68
2021/09/06 00:41:02;;;;;;;4.57;1.20;;;;;;;;;;5014203;28;20025;-68
2021/09/06 00:43:28;;;;;;;3.00;0.90;;;;;;;;;;5014182;28;20429;-68
2021/09/06 00:45:56;;;;;;;2.88;1.35;;;;;;;;;;4996270;28;20026;-68
2021/09/06 00:48:22;;;;;;;4.03;1.02;;;;;;;;;;5013063;28;20161;-68
2021/09/06 00:50:48;;;;;;;2.60;1.10;;;;;;;;;;5013560;28;20533;-68
2021/09/06 00:53:14;;;;;;;3.25;1.10;;;;;;;;;;5013836;28;20101;-68
2021/09/06 00:55:40;;;;;;;2.85;1.15;;;;;;;;;;5013712;28;20026;-68
2021/09/06 00:58:05;;;;;;;3.45;0.88;;;;;;;;;;5013476;28;20115;-68
2021/09/06 01:00:31;;;;;;;7.97;1.00;;;;;;;;;;5012982;28;20246;-68
2021/09/06 01:02:57;;;;;;;3.88;1.00;;;;;;;;;;5013003;28;20117;-68
2021/09/06 01:05:22;;;;;;;2.03;0.93;;;;;;;;;;5012429;28;20030;-68
2021/09/06 01:07:48;;;;;;;2.05;1.00;;;;;;;;;;4999059;28;20382;-68
2021/09/06 01:10:15;;;;;;;4.45;1.02;;;;;;;;;;5022054;28;20049;-68
2021/09/06 01:12:41;;;;;;;3.30;0.85;;;;;;;;;;5012770;28;20025;-68
2021/09/06 01:15:09;;;;;;;4.55;1.20;;;;;;;;;;5013075;28;20037;-68
2021/09/06 01:17:35;;;;;;;3.03;1.00;;;;;;;;;;5012677;28;20026;-68
2021/09/06 01:20:01;;;;;;;2.45;0.82;;;;;;;;;;5013223;28;20048;-68
2021/09/06 01:22:26;;;;;;;2.88;0.98;;;;;;;;;;5012800;28;20034;-68
2021/09/06 01:24:52;;;;;;;3.90;1.05;;;;;;;;;;5012659;28;20032;-68
2021/09/06 01:27:18;;;;;;;2.58;1.10;;;;;;;;;;5013465;28;20026;-69
2021/09/06 01:29:44;;;;;;;2.60;1.00;;;;;;;;;;5013032;28;20497;-68
2021/09/06 01:32:10;;;;;;;2.30;1.02;;;;;;;;;;5010430;28;21101;-68
2021/09/06 01:34:35;;;;;;;5.20;1.58;;;;;;;;;;5011901;28;20045;-68
2021/09/06 01:37:02;;;;;;;1.48;1.02;;;;;;;;;;5024767;28;20117;-69
2021/09/06 01:39:27;;;;;;;3.30;1.00;;;;;;;;;;5012807;28;20508;-69
2021/09/06 01:41:54;;;;;;;2.72;1.20;;;;;;;;;;5012019;28;20025;-68
2021/09/06 01:44:20;;;;;;;4.78;1.45;;;;;;;;;;5012676;28;20478;-68
2021/09/06 01:46:46;;;;;;;2.58;1.50;;;;;;;;;;5012578;28;20037;-68
2021/09/06 01:49:11;;;;;;;4.65;1.45;;;;;;;;;;5012470;28;20080;-68
2021/09/06 01:51:37;;;;;;;2.78;1.10;;;;;;;;;;5011845;28;20032;-68
2021/09/06 01:54:02;;;;;;;4.75;1.30;;;;;;;;;;5012396;28;20108;-68
2021/09/06 01:56:27;;;;;;;2.60;1.05;;;;;;;;;;5012626;28;20029;-68
2021/09/06 01:58:53;;;;;;;4.43;1.20;;;;;;;;;;5012097;28;20084;-68
2021/09/06 02:01:19;;;;;;;3.60;1.05;;;;;;;;;;5012331;28;20105;-68
2021/09/06 02:03:44;;;;;;;2.40;1.00;;;;;;;;;;4994008;28;20065;-68
2021/09/06 02:06:10;;;;;;;3.72;1.08;;;;;;;;;;5011873;28;20079;-68
2021/09/06 02:08:36;;;;;;;3.22;1.17;;;;;;;;;;5012045;28;20568;-68
2021/09/06 02:11:02;;;;;;;2.92;1.40;;;;;;;;;;5011654;28;20149;-68
2021/09/06 02:13:27;;;;;;;3.53;1.30;;;;;;;;;;5011269;28;20025;-68
2021/09/06 02:15:54;;;;;;;2.60;1.50;;;;;;;;;;5012566;28;20084;-68
2021/09/06 02:18:19;;;;;;;5.18;1.30;;;;;;;;;;5011893;28;20038;-68
2021/09/06 02:20:45;;;;;;;3.83;1.50;;;;;;;;;;5011679;28;20014;-68
2021/09/06 02:23:11;;;;;;;5.82;1.80;;;;;;;;;;5011464;28;20084;-68
2021/09/06 02:25:37;;;;;;;6.07;1.80;;;;;;;;;;5011531;28;20466;-68
2021/09/06 02:28:03;;;;;;;4.22;2.10;;;;;;;;;;5011807;28;20294;-68
2021/09/06 02:30:28;;;;;;;5.38;2.10;;;;;;;;;;5012065;28;20034;-68
2021/09/06 02:32:54;;;;;;;4.15;1.80;;;;;;;;;;5011779;28;20040;-68
2021/09/06 02:35:20;;;;;;;4.95;1.90;;;;;;;;;;5011076;28;20026;-68
2021/09/06 02:37:47;;;;;;;3.45;1.83;;;;;;;;;;5011248;28;20111;-68
2021/09/06 02:40:14;;;;;;;6.63;1.77;;;;;;;;;;5011757;28;20034;-68
2021/09/06 02:42:40;;;;;;;5.40;1.88;;;;;;;;;;5011436;28;20057;-68
2021/09/06 02:45:07;;;;;;;4.93;1.50;;;;;;;;;;5011675;28;20560;-68
2021/09/06 02:47:32;;;;;;;4.80;1.70;;;;;;;;;;5011185;28;20021;-68
2021/09/06 02:49:58;;;;;;;3.30;1.35;;;;;;;;;;5004108;28;20045;-68
2021/09/06 02:52:24;;;;;;;4.93;1.60;;;;;;;;;;5010177;28;20035;-67
2021/09/06 02:54:51;;;;;;;4.72;1.50;;;;;;;;;;5011311;28;20076;-68
2021/09/06 02:57:17;;;;;;;5.60;1.85;;;;;;;;;;5011410;28;20033;-68
2021/09/06 02:59:42;;;;;;;3.33;1.40;;;;;;;;;;5011299;28;20038;-68
2021/09/06 03:02:08;;;;;;;3.28;1.50;;;;;;;;;;5010806;28;20029;-68
2021/09/06 03:04:33;;;;;;;4.72;1.80;;;;;;;;;;5016899;28;20036;-67
2021/09/06 03:06:59;;;;;;;3.50;1.40;;;;;;;;;;5011507;28;20034;-67
2021/09/06 03:09:25;;;;;;;2.80;1.35;;;;;;;;;;5011015;28;20025;-67
2021/09/06 03:11:50;;;;;;;2.80;1.20;;;;;;;;;;5010272;28;20054;-67
2021/09/06 03:14:16;;;;;;;3.25;1.73;;;;;;;;;;5011224;28;20026;-68
2021/09/06 03:16:41;;;;;;;2.10;1.38;;;;;;;;;;5010520;28;20030;-67
2021/09/06 03:19:07;;;;;;;2.22;1.13;;;;;;;;;;5011329;28;20041;-67
2021/09/06 03:21:32;;;;;;;4.57;1.40;;;;;;;;;;5008767;28;20026;-67
2021/09/06 03:23:58;;;;;;;5.05;1.35;;;;;;;;;;4989924;28;20038;-68
2021/09/06 03:26:23;;;;;;;3.63;1.30;;;;;;;;;;5009967;28;20446;-68
2021/09/06 03:28:49;;;;;;;2.80;1.63;;;;;;;;;;5011468;28;20025;-68
2021/09/06 03:31:15;;;;;;;5.32;1.77;;;;;;;;;;5010800;28;20045;-68
2021/09/06 03:33:40;;;;;;;3.50;1.65;;;;;;;;;;5010837;28;20461;-67
2021/09/06 03:36:06;;;;;;;2.67;1.35;;;;;;;;;;5010312;28;20105;-67
2021/09/06 03:38:33;;;;;;;4.55;1.25;;;;;;;;;;5010525;28;20018;-67
2021/09/06 03:40:58;;;;;;;4.38;1.50;;;;;;;;;;5010401;28;20033;-68
2021/09/06 03:43:23;;;;;;;6.07;1.40;;;;;;;;;;5010677;28;20417;-67
2021/09/06 03:45:49;;;;;;;2.75;1.20;;;;;;;;;;5010637;28;20026;-68
2021/09/06 03:48:14;;;;;;;3.53;1.52;;;;;;;;;;5013758;28;20434;-67
2021/09/06 03:50:40;;;;;;;2.53;1.40;;;;;;;;;;5014794;28;20030;-68
2021/09/06 03:53:05;;;;;;;3.30;1.33;;;;;;;;;;5014536;28;20030;-67
2021/09/06 03:55:31;;;;;;;5.47;1.40;;;;;;;;;;5015299;28;20018;-67
2021/09/06 03:57:56;;;;;;;4.25;1.63;;;;;;;;;;4997244;28;20103;-67
2021/09/06 04:00:22;;;;;;;3.42;1.90;;;;;;;;;;5014002;28;20060;-68
2021/09/06 04:02:47;;;;;;;5.35;1.48;;;;;;;;;;5021285;28;20468;-67
2021/09/06 04:05:13;;;;;;;2.60;1.40;;;;;;;;;;5031161;28;20037;-68
2021/09/06 04:07:38;;;;;;;7.50;1.48;;;;;;;;;;5018440;28;20037;-68
2021/09/06 04:10:06;;;;;;;3.70;1.30;;;;;;;;;;5014213;28;20050;-68
2021/09/06 04:12:31;;;;;;;3.40;1.70;;;;;;;;;;5013197;28;20115;-68
2021/09/06 04:14:57;;;;;;;6.38;1.67;;;;;;;;;;5013460;28;20061;-68
2021/09/06 04:17:22;;;;;;;4.15;1.40;;;;;;;;;;5013268;28;20030;-68
2021/09/06 04:19:48;;;;;;;5.30;1.38;;;;;;;;;;5013718;28;20030;-68
2021/09/06 04:22:13;;;;;;;5.88;1.80;;;;;;;;;;5011385;28;20026;-68
2021/09/06 04:24:39;;;;;;;3.60;1.27;;;;;;;;;;5011805;28;20057;-68
2021/09/06 04:27:05;;;;;;;5.15;1.52;;;;;;;;;;5013406;28;20018;-68
2021/09/06 04:29:30;;;;;;;6.25;1.80;;;;;;;;;;5014069;28;20052;-68
2021/09/06 04:31:55;;;;;;;2.90;1.40;;;;;;;;;;5012382;28;20445;-68
2021/09/06 04:34:21;;;;;;;4.22;1.35;;;;;;;;;;5013518;28;20135;-67
2021/09/06 04:36:47;;;;;;;5.68;1.98;;;;;;;;;;5013901;28;20026;-68
2021/09/06 04:39:12;;;;;;;5.80;1.60;;;;;;;;;;5014084;28;20229;-68
2021/09/06 04:41:38;;;;;;;9.15;2.40;;;;;;;;;;5014145;28;20022;-68
2021/09/06 04:44:04;;;;;;;7.13;1.88;;;;;;;;;;5013999;28;20038;-68
2021/09/06 04:46:30;;;;;;;5.05;1.60;;;;;;;;;;5013839;28;20449;-67
2021/09/06 04:48:55;;;;;;;5.22;1.55;;;;;;;;;;5012664;28;20026;-68
2021/09/06 04:51:20;;;;;;;5.22;1.63;;;;;;;;;;5012474;28;20042;-68
2021/09/06 04:53:49;;;;;;;3.08;1.60;;;;;;;;;;5013068;28;20048;-68
2021/09/06 04:56:15;;;;;;;4.20;1.65;;;;;;;;;;5013024;28;20026;-68
2021/09/06 04:58:40;;;;;;;3.20;1.60;;;;;;;;;;5013633;28;20026;-68
2021/09/06 05:01:07;;;;;;;5.32;1.60;;;;;;;;;;5013745;28;20041;-68
2021/09/06 05:03:32;;;;;;;3.25;1.38;;;;;;;;;;5013692;28;20141;-68
2021/09/06 05:05:59;;;;;;;4.20;1.65;;;;;;;;;;5003354;28;20367;-68
2021/09/06 05:08:26;;;;;;;3.42;1.65;;;;;;;;;;4994180;28;20172;-68
2021/09/06 05:10:52;;;;;;;4.93;1.63;;;;;;;;;;4995808;28;20091;-68
2021/09/06 05:13:17;;;;;;;6.78;1.55;;;;;;;;;;5005587;28;20030;-68
2021/09/06 05:15:43;;;;;;;4.97;1.48;;;;;;;;;;5006852;28;20041;-68
2021/09/06 05:18:10;;;;;;;4.72;2.03;;;;;;;;;;4998719;28;20038;-68
2021/09/06 05:20:36;;;;;;;4.45;1.70;;;;;;;;;;4993920;28;20026;-68
2021/09/06 05:23:02;;;;;;;3.97;1.63;;;;;;;;;;4995440;28;20030;-68
2021/09/06 05:25:27;;;;;;;3.67;1.48;;;;;;;;;;5004743;28;20033;-68
2021/09/06 05:27:53;;;;;;;5.47;1.45;;;;;;;;;;5027387;28;20064;-68
2021/09/06 05:30:19;;;;;;;4.72;2.10;;;;;;;;;;5020693;28;20053;-68
2021/09/06 05:32:45;;;;;;;3.00;1.52;;;;;;;;;;5007480;28;20566;-68
2021/09/06 05:35:11;;;;;;;3.25;1.50;;;;;;;;;;5011549;28;20113;-67
2021/09/06 05:37:36;;;;;;;4.15;1.55;;;;;;;;;;5012830;28;20080;-68
2021/09/06 05:40:03;;;;;;;3.47;1.70;;;;;;;;;;5013014;28;20026;-68
2021/09/06 05:42:29;;;;;;;3.92;1.60;;;;;;;;;;5013279;28;20014;-67
2021/09/06 05:44:54;;;;;;;2.58;1.33;;;;;;;;;;5012843;28;20068;-68
2021/09/06 05:47:20;;;;;;;3.90;1.45;;;;;;;;;;5012490;28;20049;-68
2021/09/06 05:49:46;;;;;;;2.97;1.40;;;;;;;;;;5012787;28;20032;-68
2021/09/06 05:52:11;;;;;;;2.85;1.50;;;;;;;;;;5012161;28;20394;-67
2021/09/06 05:54:37;;;;;;;2.28;1.40;;;;;;;;;;5012251;28;20108;-68
2021/09/06 05:57:03;;;;;;;4.78;1.60;;;;;;;;;;5012018;28;20041;-68
2021/09/06 05:59:29;;;;;;;3.70;1.60;;;;;;;;;;5012572;28;20069;-68
2021/09/06 06:01:54;;;;;;;4.25;1.25;;;;;;;;;;5011895;28;20056;-68
2021/09/06 06:04:20;;;;;;;4.72;1.38;;;;;;;;;;5011099;28;20060;-68
2021/09/06 06:06:45;;;;;;;3.20;1.40;;;;;;;;;;5012168;28;20045;-68
2021/09/06 06:09:11;;;;;;;4.72;2.08;;;;;;;;;;5011810;28;20402;-67
2021/09/06 06:11:38;;;;;;;4.63;1.50;;;;;;;;;;5012368;28;20053;-68
2021/09/06 06:14:07;;;;;;;4.18;1.60;;;;;;;;;;5012338;28;20029;-68
2021/09/06 06:16:33;;;;;;;2.88;1.25;;;;;;;;;;5012095;28;20498;-68
2021/09/06 06:18:58;;;;;;;3.33;1.60;;;;;;;;;;5012323;28;20156;-68
2021/09/06 06:21:24;;;;;;;2.95;1.23;;;;;;;;;;5009720;28;20060;-67
2021/09/06 06:23:50;;;;;;;4.78;1.40;;;;;;;;;;5011688;28;20033;-68
2021/09/06 06:26:16;;;;;;;5.82;1.50;;;;;;;;;;5012246;28;20034;-68
2021/09/06 06:28:41;;;;;;;6.68;1.63;;;;;;;;;;5012305;28;20037;-68
2021/09/06 06:31:07;;;;;;;3.45;1.35;;;;;;;;;;5011576;28;20032;-68
2021/09/06 06:33:32;;;;;;;4.57;1.40;;;;;;;;;;5011558;28;20029;-67
2021/09/06 06:35:59;;;;;;;2.95;1.45;;;;;;;;;;5011823;28;20030;-68
2021/09/06 06:38:24;;;;;;;2.75;1.27;;;;;;;;;;5011670;28;20026;-67
2021/09/06 06:40:50;;;;;;;3.55;1.35;;;;;;;;;;5012080;28;20033;-67
2021/09/06 06:43:15;;;;;;;2.75;1.55;;;;;;;;;;5012041;28;20450;-68
2021/09/06 06:45:41;;;;;;;3.80;1.50;;;;;;;;;;5011600;28;20390;-68
2021/09/06 06:48:07;;;;;;;3.53;1.50;;;;;;;;;;5011044;28;20030;-68
2021/09/06 06:50:32;;;;;;;6.47;1.80;;;;;;;;;;5011485;28;20032;-68
2021/09/06 06:52:58;;;;;;;3.05;1.50;;;;;;;;;;5010229;28;20030;-67
2021/09/06 06:55:23;;;;;;;2.72;1.35;;;;;;;;;;5012097;28;20026;-68
2021/09/06 06:57:49;;;;;;;3.40;1.25;;;;;;;;;;5011950;28;20029;-68
2021/09/06 07:00:15;;;;;;;3.17;1.40;;;;;;;;;;5011673;28;20478;-69
2021/09/06 07:02:41;;;;;;;2.50;1.42;;;;;;;;;;5012168;28;20071;-67
2021/09/06 07:05:07;;;;;;;2.20;1.20;;;;;;;;;;5003900;28;20037;-67
2021/09/06 07:07:33;;;;;;;2.72;1.35;;;;;;;;;;5012944;28;20029;-68
2021/09/06 07:09:59;;;;;;;4.03;1.52;;;;;;;;;;5011314;28;20053;-66
2021/09/06 07:12:25;;;;;;;4.35;1.40;;;;;;;;;;5011488;28;20382;-66
2021/09/06 07:14:51;;;;;;;2.90;1.30;;;;;;;;;;5011755;28;20033;-69
2021/09/06 07:17:16;;;;;;;2.50;1.05;;;;;;;;;;5008946;28;20034;-68
2021/09/06 07:19:42;;;;;;;2.15;1.30;;;;;;;;;;4993696;28;20061;-68
2021/09/06 07:22:08;;;;;;;2.85;1.33;;;;;;;;;;5000238;28;20029;-68
2021/09/06 07:24:33;;;;;;;4.75;1.50;;;;;;;;;;5022627;28;20034;-69
2021/09/06 07:26:59;;;;;;;3.75;1.50;;;;;;;;;;5011226;28;20592;-69
2021/09/06 07:29:25;;;;;;;3.42;1.45;;;;;;;;;;5011173;28;20060;-70
2021/09/06 07:31:51;;;;;;;2.13;1.23;;;;;;;;;;5011704;28;20025;-69
2021/09/06 07:34:17;;;;;;;4.72;1.20;;;;;;;;;;5010923;28;20026;-69
2021/09/06 07:36:42;;;;;;;2.10;1.20;;;;;;;;;;5010698;28;20057;-71
2021/09/06 07:39:08;;;;;;;3.58;1.15;;;;;;;;;;5011285;28;20026;-69
2021/09/06 07:41:33;;;;;;;3.38;1.10;;;;;;;;;;5011103;28;20084;-71
2021/09/06 07:43:59;;;;;;;3.63;1.30;;;;;;;;;;5011030;28;20057;-71
2021/09/06 07:46:25;;;;;;;1.90;1.20;;;;;;;;;;5010739;28;20022;-68
2021/09/06 07:48:52;;;;;;;3.42;1.25;;;;;;;;;;5010316;28;20030;-69
2021/09/06 07:51:17;;;;;;;3.53;1.50;;;;;;;;;;5010696;28;20030;-69
2021/09/06 07:53:45;;;;;;;4.22;1.63;;;;;;;;;;5010743;28;20057;-68
2021/09/06 07:56:10;;;;;;;2.78;1.08;;;;;;;;;;5010972;28;20034;-68
2021/09/06 07:58:36;;;;;;;3.47;1.35;;;;;;;;;;5011159;28;20418;-69
2021/09/06 08:01:02;;;;;;;2.83;1.33;;;;;;;;;;5010678;28;20029;-69
2021/09/06 08:03:27;;;;;;;2.50;1.08;;;;;;;;;;5010819;28;20021;-69
2021/09/06 08:05:53;;;;;;;7.60;1.60;;;;;;;;;;5011579;28;20037;-69
2021/09/06 08:08:19;;;;;;;2.45;1.30;;;;;;;;;;5018392;28;20409;-69
2021/09/06 08:10:46;;;;;;;4.13;1.25;;;;;;;;;;4998473;28;20129;-69
2021/09/06 08:13:11;;;;;;;2.53;1.25;;;;;;;;;;4989698;28;20042;-70
2021/09/06 08:15:37;;;;;;;2.55;1.23;;;;;;;;;;4991996;28;20387;-69
2021/09/06 08:18:06;;;;;;;3.72;1.25;;;;;;;;;;4985902;28;20511;-69
2021/09/06 08:20:32;;;;;;;3.15;1.30;;;;;;;;;;4991124;28;20112;-70
2021/09/06 08:22:57;;;;;;;2.45;1.10;;;;;;;;;;4989456;28;20065;-69
2021/09/06 08:25:23;;;;;;;2.42;1.38;;;;;;;;;;4981515;28;20540;-69
2021/09/06 08:27:49;;;;;;;4.80;1.92;;;;;;;;;;4991551;28;20018;-68
2021/09/06 08:30:17;;;;;;;2.92;1.30;;;;;;;;;;4992079;28;20022;-70
2021/09/06 08:32:45;;;;;;;2.90;1.30;;;;;;;;;;4982910;28;20054;-70
2021/09/06 08:35:12;;;;;;;2.58;1.15;;;;;;;;;;4995361;28;20502;-70
2021/09/06 08:37:38;;;;;;;2.15;1.08;;;;;;;;;;4994941;28;20022;-68
2021/09/06 08:40:06;;;;;;;4.03;1.30;;;;;;;;;;4995179;28;20038;-69
2021/09/06 08:42:31;;;;;;;2.72;1.30;;;;;;;;;;4995557;28;20046;-69
2021/09/06 08:44:58;;;;;;;3.17;1.30;;;;;;;;;;5009329;28;20053;-71
2021/09/06 08:47:24;;;;;;;1.70;0.90;;;;;;;;;;4994259;28;20467;-69
2021/09/06 08:49:51;;;;;;;1.90;1.20;;;;;;;;;;4995022;28;20088;-72
2021/09/06 08:52:17;;;;;;;2.10;1.10;;;;;;;;;;4994849;28;20022;-67
2021/09/06 08:54:43;;;;;;;2.80;1.10;;;;;;;;;;4988437;28;20514;-70
2021/09/06 08:57:09;;;;;;;2.03;1.00;;;;;;;;;;4994585;28;20049;-70
2021/09/06 08:59:39;;;;;;;1.67;0.95;;;;;;;;;;4994704;28;20030;-69
2021/09/06 09:02:05;;;;;;;2.20;1.08;;;;;;;;;;4994298;28;20466;-69
2021/09/06 09:04:31;;;;;;;4.22;1.20;;;;;;;;;;4987790;28;20073;-71
2021/09/06 09:07:00;;;;;;;4.28;1.10;;;;;;;;;;4977558;28;20035;-70
2021/09/06 09:09:32;;;;;;;2.05;1.10;;;;;;;;;;4994779;28;20038;-70
2021/09/06 09:12:16;;;;;;;1.80;0.90;;;;;;;;;;5018732;28;20112;-70
2021/09/06 09:14:57;;;;;;;2.25;1.00;;;;;;;;;;5015616;28;20104;-70
2021/09/06 09:17:24;;;;;;;2.70;1.08;;;;;;;;;;5018466;28;20047;-69
2021/09/06 09:19:52;;;;;;;2.63;1.00;;;;;;;;;;5005370;28;20235;-70
2021/09/06 09:22:33;;;;;;;3.05;1.20;;;;;;;;;;5013050;28;20029;-70
2021/09/06 09:25:00;;;;;;;2.47;1.23;;;;;;;;;;5013702;28;20108;-70
2021/09/06 09:27:43;;;;;;;4.30;1.13;;;;;;;;;;5012321;28;20034;-70
2021/09/06 09:30:27;;;;;;;1.92;1.10;;;;;;;;;;5011064;28;20117;-68
2021/09/06 09:33:22;;;;;;;4.78;2.15;;;;;;;;;;5012871;28;20022;-68
2021/09/06 09:35:49;;;;;;;2.42;1.30;;;;;;;;;;5000863;28;20398;-68
2021/09/06 09:38:15;;;;;;;3.10;1.10;;;;;;;;;;4996035;28;20488;-69
2021/09/06 09:40:43;;;;;;;2.95;1.13;;;;;;;;;;5013502;28;20113;-71
2021/09/06 09:43:10;;;;;;;3.08;1.13;;;;;;;;;;5022313;28;20561;-70
2021/09/06 09:45:36;;;;;;;2.55;1.17;;;;;;;;;;5013027;28;20047;-71
2021/09/06 09:48:04;;;;;;;3.92;1.30;;;;;;;;;;5012803;28;20078;-69
2021/09/06 09:50:33;;;;;;;3.13;1.13;;;;;;;;;;4994718;28;20038;-69
2021/09/06 09:52:59;;;;;;;2.13;0.90;;;;;;;;;;4994074;28;20332;-68
2021/09/06 09:55:27;;;;;;;2.20;1.00;;;;;;;;;;4996758;28;20113;-68
2021/09/06 09:57:52;;;;;;;4.03;1.10;;;;;;;;;;5012809;28;20052;-69
2021/09/06 10:00:19;;;;;;;2.58;1.02;;;;;;;;;;5011723;28;20513;-69
2021/09/06 10:02:52;;;;;;;4.80;0.98;;;;;;;;;;5012894;28;20023;-71
2021/09/06 10:05:24;;;;;;;2.65;1.17;;;;;;;;;;5009634;28;20040;-69
2021/09/06 10:07:50;;;;;;;3.88;1.10;;;;;;;;;;5012487;28;20109;-71
2021/09/06 10:10:21;;;;;;;3.72;1.50;;;;;;;;;;5012048;28;20042;-70
2021/09/06 10:12:49;;;;;;;2.20;1.00;;;;;;;;;;5012468;28;20026;-69
2021/09/06 10:15:15;;;;;;;2.33;1.33;;;;;;;;;;5012318;28;20445;-70
2021/09/06 10:17:47;;;;;;;1.80;1.05;;;;;;;;;;5011849;28;20414;-71
2021/09/06 10:20:13;;;;;;;3.47;1.00;;;;;;;;;;5009604;28;20029;-70
2021/09/06 10:22:40;;;;;;;2.40;0.93;;;;;;;;;;5011793;28;20451;-70
2021/09/06 10:25:08;;;;;;;4.03;1.10;;;;;;;;;;4991284;28;20469;-70
2021/09/06 10:27:36;;;;;;;2.00;0.98;;;;;;;;;;5016444;28;20034;-69
2021/09/06 10:30:05;;;;;;;1.80;1.20;;;;;;;;;;5025602;28;20104;-69
2021/09/06 10:32:42;;;;;;;1.95;1.00;;;;;;;;;;5013146;28;20462;-72
2021/09/06 10:35:17;;;;;;;1.77;1.10;;;;;;;;;;5012197;28;20095;-71
2021/09/06 10:37:46;;;;;;;2.97;1.10;;;;;;;;;;5013004;28;20033;-70
2021/09/06 10:40:13;;;;;;;1.63;0.82;;;;;;;;;;5012005;28;20026;-70
2021/09/06 10:42:41;;;;;;;1.60;0.90;;;;;;;;;;5011913;28;20489;-71
2021/09/06 10:45:08;;;;;;;3.78;0.90;;;;;;;;;;5011794;28;20478;-71
2021/09/06 10:47:39;;;;;;;2.78;1.30;;;;;;;;;;5011652;28;20042;-70
2021/09/06 10:50:16;;;;;;;4.10;1.00;;;;;;;;;;5011352;28;20038;-71
2021/09/06 10:52:48;;;;;;;2.08;1.10;;;;;;;;;;5006979;28;20022;-69
2021/09/06 10:55:15;;;;;;;1.45;0.90;;;;;;;;;;5003515;28;20041;-69
2021/09/06 10:57:42;;;;;;;1.75;0.90;;;;;;;;;;5011124;28;20030;-67
2021/09/06 11:00:15;;;;;;;2.92;1.10;;;;;;;;;;5011369;28;20425;-70
2021/09/06 11:02:42;;;;;;;3.97;1.10;;;;;;;;;;5006977;28;20018;-71
2021/09/06 11:05:15;;;;;;;3.45;1.02;;;;;;;;;;5008609;28;20083;-69
2021/09/06 11:07:41;;;;;;;4.45;1.20;;;;;;;;;;5010220;28;20038;-69
2021/09/06 11:10:12;;;;;;;2.70;1.20;;;;;;;;;;5010518;28;20383;-71
2021/09/06 11:12:55;;;;;;;2.92;1.08;;;;;;;;;;5004976;28;20501;-69
2021/09/06 11:15:28;;;;;;;1.98;1.00;;;;;;;;;;4993011;28;20091;-68
2021/09/06 11:17:59;;;;;;;5.10;1.13;;;;;;;;;;5012285;28;20048;-68
2021/09/06 11:20:27;;;;;;;2.08;1.00;;;;;;;;;;5012008;28;20061;-72
2021/09/06 11:22:53;;;;;;;3.35;0.95;;;;;;;;;;5012287;28;20026;-69
2021/09/06 11:25:24;;;;;;;1.63;0.90;;;;;;;;;;5012012;28;20037;-70
2021/09/06 11:27:50;;;;;;;2.22;1.08;;;;;;;;;;5011947;28;20027;-71
2021/09/06 11:30:23;;;;;;;2.42;0.90;;;;;;;;;;5011448;28;20034;-71
2021/09/06 11:32:51;;;;;;;1.23;0.63;;;;;;;;;;5006191;28;20104;-75
2021/09/06 11:35:19;;;;;;;2.95;1.00;;;;;;;;;;5011122;28;20025;-72
2021/09/06 11:37:45;;;;;;;1.50;0.90;;;;;;;;;;5011359;28;20045;-72
2021/09/06 11:40:11;;;;;;;0.90;0.70;;;;;;;;;;5011960;28;20529;-73
2021/09/06 11:42:38;;;;;;;1.35;0.80;;;;;;;;;;5000147;28;20022;-70
2021/09/06 11:45:05;;;;;;;1.90;1.00;;;;;;;;;;4993260;28;20095;-71
2021/09/06 11:47:31;;;;;;;1.63;1.00;;;;;;;;;;5012395;28;20021;-70
2021/09/06 11:49:59;;;;;;;1.67;0.90;;;;;;;;;;5008594;28;20390;-69
2021/09/06 11:52:34;;;;;;;1.88;1.10;;;;;;;;;;5010824;28;20049;-71
2021/09/06 11:55:01;;;;;;;1.60;0.85;;;;;;;;;;5011243;28;20116;-70
2021/09/06 11:57:32;;;;;;;2.05;0.82;;;;;;;;;;5010735;28;20034;-70
2021/09/06 11:59:58;;;;;;;1.80;0.80;;;;;;;;;;5014546;28;20072;-69
2021/09/06 12:02:24;;;;;;;1.60;0.85;;;;;;;;;;5014018;28;20581;-68
2021/09/06 12:05:01;;;;;;;5.43;1.00;;;;;;;;;;5010680;28;20029;-68
2021/09/06 12:07:27;;;;;;;1.67;0.90;;;;;;;;;;5010773;28;20034;-68
2021/09/06 12:09:52;;;;;;;2.78;0.98;;;;;;;;;;5014138;28;20072;-68
2021/09/06 12:12:25;;;;;;;1.20;0.70;;;;;;;;;;5014537;28;20026;-67
2021/09/06 12:14:53;;;;;;;2.83;1.00;;;;;;;;;;5014771;28;20104;-67
2021/09/06 12:17:20;;;;;;;1.83;1.00;;;;;;;;;;5014472;28;20113;-69
2021/09/06 12:19:50;;;;;;;3.65;0.85;;;;;;;;;;5014202;28;20053;-68
2021/09/06 12:22:21;;;;;;;0.88;0.63;;;;;;;;;;5014354;28;20080;-68
2021/09/06 12:24:49;;;;;;;1.70;0.98;;;;;;;;;;4998319;28;20026;-69
2021/09/06 12:27:18;;;;;;;3.65;1.25;;;;;;;;;;4994717;28;20018;-69
2021/09/06 12:29:44;;;;;;;2.20;1.00;;;;;;;;;;5014349;28;20033;-68
2021/09/06 12:32:19;;;;;;;2.55;1.00;;;;;;;;;;5019415;28;20064;-68
2021/09/06 12:34:45;;;;;;;1.73;0.90;;;;;;;;;;5014465;28;20050;-68
2021/09/06 12:37:13;;;;;;;2.50;0.90;;;;;;;;;;5004129;28;20030;-71
2021/09/06 12:39:39;;;;;;;1.30;0.70;;;;;;;;;;5020094;28;20462;-70
2021/09/06 12:42:06;;;;;;;4.20;0.75;;;;;;;;;;5014540;28;20109;-70
2021/09/06 12:44:33;;;;;;;1.95;0.90;;;;;;;;;;5009982;28;20381;-69
2021/09/06 12:46:59;;;;;;;3.53;0.90;;;;;;;;;;5013159;28;20032;-69
2021/09/06 12:49:26;;;;;;;1.98;0.95;;;;;;;;;;5002799;28;20113;-67
2021/09/06 12:52:02;;;;;;;1.40;0.80;;;;;;;;;;5014279;28;20061;-68
2021/09/06 12:54:29;;;;;;;1.80;0.90;;;;;;;;;;5014587;28;20432;-68
2021/09/06 12:56:58;;;;;;;1.63;0.88;;;;;;;;;;5013770;28;20482;-68
2021/09/06 12:59:24;;;;;;;3.30;1.05;;;;;;;;;;5013550;28;20057;-70
2021/09/06 13:01:51;;;;;;;1.40;0.90;;;;;;;;;;5013818;28;20052;-70
2021/09/06 13:04:17;;;;;;;4.20;0.93;;;;;;;;;;5013678;28;20076;-69
2021/09/06 13:06:43;;;;;;;1.75;0.85;;;;;;;;;;5013529;28;20109;-69
2021/09/06 13:09:09;;;;;;;3.90;0.80;;;;;;;;;;5013435;28;20454;-70
2021/09/06 13:11:35;;;;;;;1.77;0.80;;;;;;;;;;5012957;28;20050;-69
2021/09/06 13:14:04;;;;;;;2.20;1.00;;;;;;;;;;5013696;28;20037;-69
2021/09/06 13:16:31;;;;;;;1.15;0.80;;;;;;;;;;4993311;28;20034;-71
2021/09/06 13:18:56;;;;;;;2.42;0.90;;;;;;;;;;5006723;28;20488;-72
2021/09/06 13:21:23;;;;;;;2.45;0.85;;;;;;;;;;5013459;28;20106;-72
2021/09/06 13:23:48;;;;;;;1.33;0.88;;;;;;;;;;5005875;28;20049;-69
2021/09/06 13:26:14;;;;;;;1.98;0.73;;;;;;;;;;5005815;28;20615;-69
2021/09/06 13:28:41;;;;;;;1.30;0.73;;;;;;;;;;5013431;28;20060;-71
2021/09/06 13:31:07;;;;;;;1.70;0.82;;;;;;;;;;5013039;28;20434;-69
2021/09/06 13:33:34;;;;;;;2.67;1.10;;;;;;;;;;5013282;28;20030;-74
2021/09/06 13:36:00;;;;;;;1.73;0.82;;;;;;;;;;5015155;28;20121;-69
2021/09/06 13:38:27;;;;;;;1.70;0.80;;;;;;;;;;5012819;28;20030;-70
2021/09/06 13:40:53;;;;;;;1.23;1.00;;;;;;;;;;5012986;28;20072;-71
2021/09/06 13:43:18;;;;;;;6.22;1.10;;;;;;;;;;5012689;28;20362;-69
2021/09/06 13:45:44;;;;;;;2.70;1.10;;;;;;;;;;5013152;28;20463;-69
2021/09/06 13:48:10;;;;;;;2.83;0.90;;;;;;;;;;5011901;28;20478;-71
2021/09/06 13:50:35;;;;;;;3.80;0.93;;;;;;;;;;5012395;28;20029;-70
2021/09/06 13:53:01;;;;;;;2.42;0.90;;;;;;;;;;5001386;28;20031;-70
2021/09/06 13:55:27;;;;;;;1.88;0.95;;;;;;;;;;5012447;28;20030;-71
2021/09/06 13:57:52;;;;;;;1.63;0.85;;;;;;;;;;5012986;28;20048;-70
2021/09/06 14:00:18;;;;;;;2.45;0.90;;;;;;;;;;5012771;28;20026;-71
2021/09/06 14:02:45;;;;;;;3.83;0.95;;;;;;;;;;5009813;28;20030;-69
2021/09/06 14:05:11;;;;;;;2.95;0.95;;;;;;;;;;4997574;28;20030;-70
2021/09/06 14:07:37;;;;;;;1.48;0.88;;;;;;;;;;5000375;28;20105;-71
2021/09/06 14:10:04;;;;;;;2.20;1.10;;;;;;;;;;4995817;28;20046;-70
2021/09/06 14:12:30;;;;;;;2.88;0.80;;;;;;;;;;4994852;28;20479;-71
2021/09/06 14:14:56;;;;;;;1.95;1.10;;;;;;;;;;5000140;28;20079;-73
2021/09/06 14:17:21;;;;;;;4.05;1.00;;;;;;;;;;5012711;28;20025;-71
2021/09/06 14:19:47;;;;;;;2.17;1.00;;;;;;;;;;5013389;28;20037;-70
2021/09/06 14:22:13;;;;;;;1.65;0.90;;;;;;;;;;5012792;28;20017;-69
2021/09/06 14:24:38;;;;;;;2.95;0.93;;;;;;;;;;5009304;28;20030;-69
2021/09/06 14:27:04;;;;;;;4.22;1.17;;;;;;;;;;5010773;28;20037;-68
2021/09/06 14:29:30;;;;;;;3.08;0.90;;;;;;;;;;4993948;28;20026;-70
2021/09/06 14:31:56;;;;;;;1.75;0.90;;;;;;;;;;5005662;28;20026;-70
2021/09/06 14:34:22;;;;;;;2.58;1.00;;;;;;;;;;5012441;28;20036;-70
2021/09/06 14:36:48;;;;;;;2.40;0.90;;;;;;;;;;5010328;28;20033;-69
2021/09/06 14:39:14;;;;;;;3.15;1.00;;;;;;;;;;5012945;28;20531;-70
2021/09/06 14:41:40;;;;;;;3.00;1.10;;;;;;;;;;5012289;28;20382;-71